首页
METAR-TAF:

METAR-TAF

机场 :

Massena, 紐約州, 美国

纬度: 44-56-09N, 经度: 074-50-44W, 海拔: 66米

当前天气观测

该预报发布于1小时和0分钟前的15:53 UTC
风速9节,风向
温度 4°C
湿度 56%
气压 1025 hPa
能見度: 16.1公里
天空无云

METAR: KMSS 131553Z AUTO 19009KT 10SM CLR 04/M04 A3028 RMK AO2 SLP258 T00391044

时间: 11:53 (16:53 UTC)

预报

该预报发布于5小时和22分钟前的11:31 UTC
预报有效从13日的 12点(UTC)到 14日的 12点(UTC)
风速3节,风向多变
能見度: 10公里
少量云层高于25000英尺
从 13日的 2100点(UTC)
风速5节,风向
能見度: 10公里
阴天层高于4000英尺
从 14日的 0300点(UTC)
风速3节,风向多变
能見度: 9.7公里
阴天层高于2100英尺
小毛毛雨, 轻雾
从 14日的 0800点(UTC)
风速5节,风向东转东北
能見度: 6.4公里
阴天层高于700英尺
小雨, 轻雾

TAF: KMSS 131131Z 1312/1412 VRB03KT P6SM FEW250 WS020/22035KT FM132100 09005KT P6SM OVC040 FM140300 VRB03KT 6SM -DZ BR OVC021 WS020/21030KT FM140800 06005KT 4SM -RA BR OVC007

超过4000个机场的气象观测和天气预报(METAR&TAF报告)。

可查询的气象台以黄色和红色小点在地图上表示。

将鼠标移到小点上方,可查看气象台名称。

然后点击查看天气观测和预报。

如需切换地图:点击带黑十字的绿色按钮放大地图;点击带横线的绿色按钮缩小地图;或者点击绿色箭头查看邻近地区的地图。


METAR-TAF: